Bramble, Montserrat

9:23 AM AST on July 30, 2014 (GMT -0400)
JOHN OSBORNE AP (TRPG) Elev 551 ft | 16.79 °N, 62.19 °W | Change Station

Current weather conditions updated 23 minutes ago

Light Rain Showers
Light Showers Rain
75 °F
Feels Like 75 °F
N
16
Wind Variable Wind from ESE

Today is forecast to be Cooler than yesterday. Showers ending by midday.

Today
High -- | Low -- °F
--% Chance of Precip.
Yesterday
High -- | Low -- °F
Precip. -- in
5:48 AM 6:41 PM
Waxing Crescent, 11% visible
Pressure 30.06 in
Visibility 6.2 miles
Clouds Mostly Cloudy 1600 ft
Scattered Clouds 3800 ft
Dew Point 73 °F
Humidity 94%
Rainfall 0.00 in
Snow Depth Not available.
UV 7 out of 12
Pollen Not available.
Air Quality Not available.
Flu Activity Not available.
METAR TRPG 301300Z 12014KT 9999 -SHRA BKN016 SCT038 24/23 Q1018 RMK RESH

More Conditions Fewer Conditions

Pressure 30.06 in
Visibility 6.2 miles
Clouds Mostly Cloudy 1600 ft
Scattered Clouds 3800 ft
Dew Point 73 °F
Humidity 94%
Rainfall 0.00 in
Snow Depth Not available.
UV 7 out of 12
Pollen Not available.
Air Quality Not available.
Flu Activity Not available.
METAR TRPG 301300Z 12014KT 9999 -SHRA BKN016 SCT038 24/23 Q1018 RMK RESH

More Conditions Fewer Conditions

10-Day Weather Forecast

Almanac

Astronomy

Jul. 30, 2014 Rise Set
Actual Time 5:48 AM AST 6:41 PM AST
Civil Twilight 5:25 AM AST 7:04 PM AST
Nautical Twilight 4:58 AM AST 7:31 PM AST
Astronomical Twilight 4:30 AM AST 7:59 PM AST
Moon 8:38 AM AST 9:03 PM AST
Length of Visible Light 13h 39m
Length of Day
12h 53m
Tomorrow will be 0m 41s shorter.
Waxing Crescent, 11% of the Moon is Illuminated
Today
Waxing Crescent
Aug 3
First Quarter
Aug 10
Full
Aug 17
Last Quarter
Aug 25
New

Yesterday's Extremes

Country Highs Country Lows

Community

WunderPhotos

Upload Photos

1,739,077 photos uploaded!

Nearby

Snow Depth

Not available.

Earthquake Activity

City Distance Mag. Time & Date
No recent earthquake activity has been reported nearby.
Minimum magnitude displayed is 2.5.

Coastal Water Temperatures

Place Temperature
No Stations Reporting

Nearby Weather Stations

There are no personal weather stations in this area.